createdAt,value
2022-10-06T00:00:12.129Z,101442.28
2022-10-06T00:00:42.554Z,101448.34
2022-10-06T00:01:13.029Z,101446.62
2022-10-06T00:01:43.478Z,101448.83
2022-10-06T00:02:13.909Z,101446.97
2022-10-06T00:02:44.353Z,101445.45
2022-10-06T00:03:14.744Z,101444.44
2022-10-06T00:03:45.167Z,101446.48
2022-10-06T00:04:15.597Z,101446.66
2022-10-06T00:04:46.020Z,101443.80
2022-10-06T00:05:16.446Z,101449.52
2022-10-06T00:05:46.863Z,101451.03
2022-10-06T00:06:17.289Z,101450.67
2022-10-06T00:06:47.730Z,101453.69
2022-10-06T00:07:18.169Z,101447.47
2022-10-06T00:07:48.572Z,101452.38
2022-10-06T00:08:19.006Z,101453.88
2022-10-06T00:08:49.423Z,101447.97
2022-10-06T00:09:19.849Z,101449.34
2022-10-06T00:09:50.271Z,101452.87
2022-10-06T00:10:20.694Z,101451.69
2022-10-06T00:10:51.115Z,101452.02
2022-10-06T00:11:21.536Z,101445.64
2022-10-06T00:11:51.998Z,101450.49
2022-10-06T00:12:22.452Z,101453.02
2022-10-06T00:12:52.842Z,101454.55
2022-10-06T00:13:23.264Z,101450.03
2022-10-06T00:13:53.686Z,101448.66
2022-10-06T00:14:24.127Z,101452.19
2022-10-06T00:14:54.545Z,101450.34
2022-10-06T00:15:24.969Z,101455.55
2022-10-06T00:15:55.429Z,101456.57
2022-10-06T00:16:25.822Z,101459.09
2022-10-06T00:16:56.253Z,101456.91
2022-10-06T00:17:26.675Z,101459.08
2022-10-06T00:17:57.100Z,101458.60
2022-10-06T00:18:27.925Z,101460.27
2022-10-06T00:18:58.436Z,101461.78
2022-10-06T00:19:28.890Z,101461.97
2022-10-06T00:19:59.304Z,101463.64
2022-10-06T00:20:29.728Z,101465.48
2022-10-06T00:21:00.151Z,101460.77
2022-10-06T00:21:30.577Z,101461.62
2022-10-06T00:22:01.018Z,101460.77
2022-10-06T00:22:31.460Z,101461.44
2022-10-06T00:23:01.870Z,101460.62
2022-10-06T00:23:32.296Z,101459.28
2022-10-06T00:24:02.723Z,101461.97
2022-10-06T00:24:33.142Z,101459.45
2022-10-06T00:25:03.563Z,101462.64
2022-10-06T00:25:33.985Z,101459.94
2022-10-06T00:26:04.405Z,101462.28
2022-10-06T00:26:34.827Z,101463.62
2022-10-06T00:27:05.269Z,101464.48
2022-10-06T00:27:35.692Z,101465.33
2022-10-06T00:28:06.155Z,101465.33
2022-10-06T00:28:36.644Z,101463.48
2022-10-06T00:29:07.050Z,101466.50
2022-10-06T00:29:37.482Z,101468.98
2022-10-06T00:30:07.909Z,101468.50
2022-10-06T00:30:38.327Z,101469.53
2022-10-06T00:31:08.780Z,101469.18
2022-10-06T00:31:39.178Z,101470.86
2022-10-06T00:32:09.624Z,101469.34
2022-10-06T00:32:40.048Z,101472.88
2022-10-06T00:33:10.466Z,101471.37
2022-10-06T00:33:40.892Z,101473.23
2022-10-06T00:34:11.313Z,101470.38
2022-10-06T00:34:41.735Z,101469.69
2022-10-06T00:35:12.164Z,101471.19
2022-10-06T00:35:42.595Z,101468.84
2022-10-06T00:36:13.036Z,101467.83
2022-10-06T00:36:43.469Z,101469.85
2022-10-06T00:37:13.914Z,101469.02
2022-10-06T00:37:44.381Z,101472.05
2022-10-06T00:38:14.771Z,101468.53
2022-10-06T00:38:45.191Z,101471.39
2022-10-06T00:39:15.619Z,101470.40
2022-10-06T00:39:46.053Z,101470.56
2022-10-06T00:40:16.475Z,101474.39
2022-10-06T00:40:46.897Z,101471.89
2022-10-06T00:41:17.332Z,101473.20
2022-10-06T00:41:47.742Z,101476.74
2022-10-06T00:42:18.186Z,101476.59
2022-10-06T00:42:48.615Z,101469.73
2022-10-06T00:43:19.033Z,101476.91
2022-10-06T00:43:49.462Z,101476.42
2022-10-06T00:44:19.876Z,101477.27
2022-10-06T00:44:50.301Z,101478.44
2022-10-06T00:45:20.724Z,101480.45
2022-10-06T00:45:51.194Z,101479.28
2022-10-06T00:46:21.677Z,101477.75
2022-10-06T00:46:52.180Z,101474.90
2022-10-06T00:47:22.619Z,101478.09
2022-10-06T00:47:53.052Z,101478.76
2022-10-06T00:48:23.476Z,101481.28
2022-10-06T00:48:53.895Z,101479.41
2022-10-06T00:49:24.322Z,101476.41
2022-10-06T00:49:54.739Z,101477.08
2022-10-06T00:50:25.169Z,101477.59
2022-10-06T00:50:55.606Z,101476.59
2022-10-06T00:51:26.027Z,101472.73
2022-10-06T00:51:56.457Z,101475.10
2022-10-06T00:52:26.886Z,101477.27
2022-10-06T00:52:57.328Z,101474.94
2022-10-06T00:53:27.731Z,101476.28
2022-10-06T00:53:58.162Z,101475.78
2022-10-06T00:54:28.577Z,101476.28
2022-10-06T00:54:59.002Z,101477.25
2022-10-06T00:55:29.440Z,101473.26
2022-10-06T00:55:59.880Z,101477.09
2022-10-06T00:56:30.300Z,101476.45
2022-10-06T00:57:00.727Z,101474.44
2022-10-06T00:57:31.180Z,101479.31
2022-10-06T00:58:01.604Z,101478.62
2022-10-06T00:58:32.100Z,101480.31
2022-10-06T00:59:02.478Z,101481.16
2022-10-06T00:59:32.900Z,101482.64
2022-10-06T01:00:03.326Z,101474.27
2022-10-06T01:00:33.771Z,101480.31
2022-10-06T01:01:04.257Z,101477.80
2022-10-06T01:01:34.728Z,101481.66
2022-10-06T01:02:05.113Z,101485.99
2022-10-06T01:02:35.583Z,101484.00
2022-10-06T01:03:06.061Z,101489.53
2022-10-06T01:03:36.440Z,101490.53
2022-10-06T01:04:06.867Z,101479.62
2022-10-06T01:04:37.287Z,101482.65
2022-10-06T01:05:07.709Z,101488.20
2022-10-06T01:05:38.147Z,101490.53
2022-10-06T01:06:08.575Z,101489.03
2022-10-06T01:06:39.018Z,101488.20
2022-10-06T01:07:09.461Z,101489.90
2022-10-06T01:07:39.913Z,101490.05
2022-10-06T01:08:10.368Z,101488.20
2022-10-06T01:08:40.788Z,101492.06
2022-10-06T01:09:11.231Z,101491.56
2022-10-06T01:09:41.632Z,101495.95
2022-10-06T01:10:12.065Z,101494.92
2022-10-06T01:10:42.487Z,101493.72
2022-10-06T01:11:12.908Z,101494.92
2022-10-06T01:11:43.339Z,101492.41
2022-10-06T01:12:13.761Z,101498.27
2022-10-06T01:12:44.194Z,101498.29
2022-10-06T01:13:14.627Z,101498.30
2022-10-06T01:13:45.065Z,101499.14
2022-10-06T01:14:15.497Z,101498.47
2022-10-06T01:14:45.928Z,101498.28
2022-10-06T01:15:16.363Z,101501.66
2022-10-06T01:15:46.797Z,101497.46
2022-10-06T01:16:17.307Z,101493.43
2022-10-06T01:16:47.689Z,101495.27
2022-10-06T01:17:18.108Z,101497.12
2022-10-06T01:17:48.543Z,101489.56
2022-10-06T01:18:18.963Z,101494.10
2022-10-06T01:18:49.384Z,101491.92
2022-10-06T01:19:19.805Z,101496.41
2022-10-06T01:19:50.228Z,101498.77
2022-10-06T01:20:20.649Z,101503.33
2022-10-06T01:20:51.097Z,101501.80
2022-10-06T01:21:21.521Z,101500.47
2022-10-06T01:21:51.947Z,101496.77
2022-10-06T01:22:22.373Z,101497.92
2022-10-06T01:22:52.816Z,101497.45
2022-10-06T01:23:23.281Z,101501.80
2022-10-06T01:23:53.689Z,101496.12
2022-10-06T01:24:24.109Z,101506.19
2022-10-06T01:24:54.534Z,101503.69
2022-10-06T01:25:24.968Z,101508.54
2022-10-06T01:25:55.374Z,101505.34
2022-10-06T01:26:25.799Z,101505.33
2022-10-06T01:26:56.217Z,101504.67
2022-10-06T01:27:26.651Z,101503.83
2022-10-06T01:27:57.152Z,101503.02
2022-10-06T01:28:28.033Z,101504.67
2022-10-06T01:28:58.706Z,101503.50
2022-10-06T01:29:29.138Z,101502.51
2022-10-06T01:29:59.554Z,101509.23
2022-10-06T01:30:29.979Z,101498.62
2022-10-06T01:31:00.444Z,101506.84
2022-10-06T01:31:30.918Z,101504.82
2022-10-06T01:32:01.307Z,101508.20
2022-10-06T01:32:31.729Z,101509.55
2022-10-06T01:33:02.164Z,101512.91
2022-10-06T01:33:32.591Z,101505.52
2022-10-06T01:34:03.022Z,101509.23
2022-10-06T01:34:33.484Z,101512.58
2022-10-06T01:35:03.917Z,101510.23
2022-10-06T01:35:34.338Z,101512.41
2022-10-06T01:36:04.765Z,101514.73
2022-10-06T01:36:35.185Z,101513.39
2022-10-06T01:37:05.606Z,101510.03
2022-10-06T01:37:36.044Z,101514.42
2022-10-06T01:38:06.468Z,101512.23
2022-10-06T01:38:37.031Z,101512.59
2022-10-06T01:39:07.382Z,101509.91
2022-10-06T01:39:37.825Z,101511.92
2022-10-06T01:40:08.246Z,101510.74
2022-10-06T01:40:38.671Z,101509.91
2022-10-06T01:41:09.095Z,101512.38
2022-10-06T01:41:39.511Z,101514.91
2022-10-06T01:42:09.935Z,101514.08
2022-10-06T01:42:40.356Z,101516.59
2022-10-06T01:43:10.814Z,101518.27
2022-10-06T01:43:41.238Z,101515.58
2022-10-06T01:44:11.658Z,101514.25
2022-10-06T01:44:42.077Z,101514.76
2022-10-06T01:45:12.499Z,101514.06
2022-10-06T01:45:42.923Z,101512.38
2022-10-06T01:46:13.409Z,101516.09
2022-10-06T01:46:43.852Z,101519.45
2022-10-06T01:47:14.237Z,101514.59
2022-10-06T01:47:44.661Z,101518.27
2022-10-06T01:48:15.096Z,101522.47
2022-10-06T01:48:45.525Z,101519.13
2022-10-06T01:49:15.959Z,101515.45
2022-10-06T01:49:46.382Z,101519.82
2022-10-06T01:50:16.818Z,101516.80
2022-10-06T01:50:47.237Z,101514.11
2022-10-06T01:51:17.660Z,101515.78
2022-10-06T01:51:48.083Z,101514.42
2022-10-06T01:52:18.506Z,101513.27
2022-10-06T01:52:48.929Z,101512.91
2022-10-06T01:53:19.373Z,101512.91
2022-10-06T01:53:49.815Z,101510.39
2022-10-06T01:54:20.219Z,101510.36
2022-10-06T01:54:50.643Z,101516.41
2022-10-06T01:55:21.066Z,101517.27
2022-10-06T01:55:51.483Z,101517.27
2022-10-06T01:56:21.906Z,101511.73
2022-10-06T01:56:52.336Z,101516.76
2022-10-06T01:57:22.772Z,101515.41
2022-10-06T01:57:53.198Z,101517.78
2022-10-06T01:58:23.650Z,101516.42
2022-10-06T01:58:54.085Z,101514.27
2022-10-06T01:59:24.502Z,101516.80
2022-10-06T01:59:55.184Z,101516.97
2022-10-06T02:00:25.544Z,101516.44
2022-10-06T02:00:55.976Z,101515.42
2022-10-06T02:01:26.456Z,101515.60
2022-10-06T02:01:56.866Z,101517.62
2022-10-06T02:02:27.248Z,101516.77
2022-10-06T02:02:57.670Z,101514.23
2022-10-06T02:03:28.105Z,101511.39
2022-10-06T02:03:58.578Z,101512.88
2022-10-06T02:04:28.974Z,101512.57
2022-10-06T02:04:59.404Z,101511.20
2022-10-06T02:05:29.825Z,101514.73
2022-10-06T02:06:00.284Z,101511.55
2022-10-06T02:06:30.711Z,101511.06
2022-10-06T02:07:01.089Z,101510.70
2022-10-06T02:07:31.514Z,101511.20
2022-10-06T02:08:01.963Z,101505.53
2022-10-06T02:08:32.600Z,101505.18
2022-10-06T02:09:02.988Z,101505.03
2022-10-06T02:09:33.405Z,101509.05
2022-10-06T02:10:03.850Z,101511.08
2022-10-06T02:10:34.256Z,101513.27
2022-10-06T02:11:04.677Z,101513.94
2022-10-06T02:11:35.098Z,101512.26
2022-10-06T02:12:05.520Z,101515.93
2022-10-06T02:12:35.941Z,101515.58
2022-10-06T02:13:06.363Z,101516.59
2022-10-06T02:13:36.816Z,101518.12
2022-10-06T02:14:07.242Z,101517.64
2022-10-06T02:14:37.667Z,101517.97
2022-10-06T02:15:08.090Z,101520.95
2022-10-06T02:15:38.547Z,101519.31
2022-10-06T02:16:09.054Z,101522.16
2022-10-06T02:16:39.445Z,101523.81
2022-10-06T02:17:09.874Z,101520.16
2022-10-06T02:17:40.305Z,101521.16
2022-10-06T02:18:10.740Z,101521.84
2022-10-06T02:18:41.178Z,101524.18
2022-10-06T02:19:11.601Z,101525.37
2022-10-06T02:19:42.024Z,101524.70
2022-10-06T02:20:12.452Z,101524.19
2022-10-06T02:20:42.900Z,101522.34
2022-10-06T02:21:13.315Z,101524.48
2022-10-06T02:21:43.757Z,101525.37
2022-10-06T02:22:14.180Z,101529.38
2022-10-06T02:22:44.603Z,101525.67
2022-10-06T02:23:15.026Z,101525.37
2022-10-06T02:23:45.483Z,101527.85
2022-10-06T02:24:15.928Z,101527.72
2022-10-06T02:24:46.334Z,101528.06
2022-10-06T02:25:16.755Z,101533.06
2022-10-06T02:25:47.188Z,101533.42
2022-10-06T02:26:17.610Z,101530.08
2022-10-06T02:26:48.046Z,101529.07
2022-10-06T02:27:18.470Z,101533.42
2022-10-06T02:27:48.895Z,101536.44
2022-10-06T02:28:19.412Z,101536.26
2022-10-06T02:28:50.035Z,101536.77
2022-10-06T02:29:20.525Z,101535.94
2022-10-06T02:29:50.964Z,101538.12
2022-10-06T02:30:21.393Z,101530.75
2022-10-06T02:30:51.883Z,101533.11
2022-10-06T02:31:22.335Z,101532.92
2022-10-06T02:31:52.730Z,101532.59
2022-10-06T02:32:23.162Z,101532.43
2022-10-06T02:32:53.593Z,101532.08
2022-10-06T02:33:24.036Z,101532.09
2022-10-06T02:33:54.498Z,101535.45
2022-10-06T02:34:24.920Z,101532.75
2022-10-06T02:34:55.392Z,101535.30
2022-10-06T02:35:25.822Z,101532.60
2022-10-06T02:35:56.246Z,101532.60
2022-10-06T02:36:26.666Z,101530.75
2022-10-06T02:36:57.088Z,101532.09
2022-10-06T02:37:27.510Z,101532.62
2022-10-06T02:37:57.967Z,101533.95
2022-10-06T02:38:28.705Z,101533.61
2022-10-06T02:38:59.326Z,101536.95
2022-10-06T02:39:29.804Z,101539.79
2022-10-06T02:40:00.163Z,101539.66
2022-10-06T02:40:30.588Z,101540.98
2022-10-06T02:41:01.015Z,101542.16
2022-10-06T02:41:31.437Z,101535.95
2022-10-06T02:42:01.869Z,101536.78
2022-10-06T02:42:32.294Z,101538.48
2022-10-06T02:43:02.718Z,101538.66
2022-10-06T02:43:33.140Z,101540.16
2022-10-06T02:44:03.572Z,101539.64
2022-10-06T02:44:33.995Z,101545.84
2022-10-06T02:45:04.416Z,101544.49
2022-10-06T02:45:34.840Z,101546.02
2022-10-06T02:46:05.346Z,101543.84
2022-10-06T02:46:35.973Z,101546.38
2022-10-06T02:47:06.363Z,101547.55
2022-10-06T02:47:36.796Z,101546.53
2022-10-06T02:48:07.230Z,101550.25
2022-10-06T02:48:37.657Z,101547.38
2022-10-06T02:49:08.099Z,101555.28
2022-10-06T02:49:38.529Z,101553.41
2022-10-06T02:50:08.953Z,101554.78
2022-10-06T02:50:39.386Z,101555.28
2022-10-06T02:51:09.803Z,101557.31
2022-10-06T02:51:40.227Z,101556.47
2022-10-06T02:52:10.654Z,101560.48
2022-10-06T02:52:41.160Z,101559.33
2022-10-06T02:53:11.575Z,101560.48
2022-10-06T02:53:41.998Z,101561.48
2022-10-06T02:54:12.445Z,101556.95
2022-10-06T02:54:42.887Z,101553.78
2022-10-06T02:55:13.291Z,101554.94
2022-10-06T02:55:43.746Z,101557.44
2022-10-06T02:56:14.170Z,101556.13
2022-10-06T02:56:44.601Z,101560.80
2022-10-06T02:57:15.023Z,101561.66
2022-10-06T02:57:45.445Z,101558.83
2022-10-06T02:58:15.870Z,101565.05
2022-10-06T02:58:46.287Z,101560.84
2022-10-06T02:59:16.729Z,101564.35
2022-10-06T02:59:47.163Z,101560.97
2022-10-06T03:00:17.587Z,101562.52
2022-10-06T03:00:48.008Z,101562.67
2022-10-06T03:01:18.482Z,101561.16
2022-10-06T03:01:49.025Z,101565.02
2022-10-06T03:02:19.701Z,101568.03
2022-10-06T03:02:50.272Z,101569.25
2022-10-06T03:03:20.638Z,101572.23
2022-10-06T03:03:51.070Z,101573.92
2022-10-06T03:04:21.508Z,101566.86
2022-10-06T03:04:51.933Z,101573.77
2022-10-06T03:05:22.347Z,101576.14
2022-10-06T03:05:52.769Z,101574.80
2022-10-06T03:06:23.193Z,101578.01
2022-10-06T03:06:53.627Z,101579.15
2022-10-06T03:07:24.054Z,101581.34
2022-10-06T03:07:54.473Z,101582.01
2022-10-06T03:08:25.036Z,101582.87
2022-10-06T03:08:55.547Z,101586.73
2022-10-06T03:09:25.979Z,101587.07
2022-10-06T03:09:56.430Z,101584.22
2022-10-06T03:10:26.843Z,101585.70
2022-10-06T03:10:57.267Z,101584.70
2022-10-06T03:11:27.691Z,101587.22
2022-10-06T03:11:58.125Z,101584.71
2022-10-06T03:12:28.541Z,101584.71
2022-10-06T03:12:58.960Z,101586.56
2022-10-06T03:13:29.378Z,101586.06
2022-10-06T03:13:59.799Z,101588.39
2022-10-06T03:14:30.245Z,101586.73
2022-10-06T03:15:00.667Z,101587.41
2022-10-06T03:15:31.089Z,101587.89
2022-10-06T03:16:01.623Z,101590.41
2022-10-06T03:16:32.213Z,101593.94
2022-10-06T03:17:02.677Z,101592.08
2022-10-06T03:17:33.098Z,101594.59
2022-10-06T03:18:03.518Z,101593.77
2022-10-06T03:18:33.962Z,101596.48
2022-10-06T03:19:04.384Z,101596.30
2022-10-06T03:19:34.821Z,101598.12
2022-10-06T03:20:05.244Z,101599.98
2022-10-06T03:20:35.673Z,101599.83
2022-10-06T03:21:06.094Z,101605.88
2022-10-06T03:21:36.541Z,101607.39
2022-10-06T03:22:06.965Z,101606.91
2022-10-06T03:22:37.393Z,101605.05
2022-10-06T03:23:11.492Z,101610.92
2022-10-06T03:23:43.141Z,101612.75
2022-10-06T03:24:13.577Z,101611.26
2022-10-06T03:24:44.034Z,101618.17
2022-10-06T03:25:14.476Z,101620.33
2022-10-06T03:25:44.885Z,101622.00
2022-10-06T03:26:15.304Z,101623.84
2022-10-06T03:26:45.725Z,101625.19
2022-10-06T03:27:16.146Z,101623.38
2022-10-06T03:27:46.573Z,101624.37
2022-10-06T03:28:17.067Z,101626.70
2022-10-06T03:28:47.628Z,101625.55
2022-10-06T03:29:18.070Z,101628.59
2022-10-06T03:29:48.487Z,101628.42
2022-10-06T03:30:18.915Z,101625.05
2022-10-06T03:30:49.358Z,101621.85
2022-10-06T03:31:19.848Z,101625.06
2022-10-06T03:31:50.357Z,101623.36
2022-10-06T03:32:20.766Z,101629.73
2022-10-06T03:32:51.193Z,101626.89
2022-10-06T03:33:21.614Z,101632.12
2022-10-06T03:33:52.035Z,101637.19
2022-10-06T03:34:22.504Z,101636.89
2022-10-06T03:34:52.887Z,101635.44
2022-10-06T03:35:23.319Z,101639.50
2022-10-06T03:35:53.738Z,101642.20
2022-10-06T03:36:24.168Z,101643.70
2022-10-06T03:36:54.589Z,101649.25
2022-10-06T03:37:25.012Z,101648.60
2022-10-06T03:37:55.440Z,101650.77
2022-10-06T03:38:26.224Z,101653.12
2022-10-06T03:38:56.805Z,101652.78
2022-10-06T03:39:27.229Z,101656.80
2022-10-06T03:39:57.662Z,101659.45
2022-10-06T03:40:28.110Z,101659.60
2022-10-06T03:40:58.509Z,101667.64
2022-10-06T03:41:28.945Z,101667.64
2022-10-06T03:41:59.373Z,101672.34
2022-10-06T03:42:29.829Z,101668.14
2022-10-06T03:43:00.259Z,101671.31
2022-10-06T03:43:30.680Z,101671.11
2022-10-06T03:44:01.117Z,101676.16
2022-10-06T03:44:31.542Z,101676.16
2022-10-06T03:45:01.966Z,101675.18
2022-10-06T03:45:32.396Z,101671.97
2022-10-06T03:46:02.829Z,101672.62
2022-10-06T03:46:33.356Z,101669.59
2022-10-06T03:47:03.847Z,101673.48
2022-10-06T03:47:34.236Z,101676.51
2022-10-06T03:48:04.671Z,101673.31
2022-10-06T03:48:35.110Z,101679.03
2022-10-06T03:49:05.520Z,101677.84
2022-10-06T03:49:35.943Z,101674.99
2022-10-06T03:50:06.372Z,101674.30
2022-10-06T03:50:36.796Z,101675.67
2022-10-06T03:51:07.230Z,101674.66
2022-10-06T03:51:37.661Z,101674.48
2022-10-06T03:52:08.080Z,101677.69
2022-10-06T03:52:38.502Z,101673.48
2022-10-06T03:53:08.934Z,101677.33
2022-10-06T03:53:39.358Z,101673.47
2022-10-06T03:54:09.776Z,101670.45
2022-10-06T03:54:40.199Z,101674.16
2022-10-06T03:55:10.636Z,101681.55
2022-10-06T03:55:41.075Z,101681.22
2022-10-06T03:56:11.488Z,101678.86
2022-10-06T03:56:41.910Z,101683.21
2022-10-06T03:57:12.342Z,101685.08
2022-10-06T03:57:42.758Z,101685.42
2022-10-06T03:58:13.199Z,101687.08
2022-10-06T03:58:43.629Z,101689.44
2022-10-06T03:59:14.056Z,101688.44
2022-10-06T03:59:44.480Z,101692.61
2022-10-06T04:00:14.921Z,101698.33
2022-10-06T04:00:45.376Z,101696.14
2022-10-06T04:01:15.802Z,101702.72
2022-10-06T04:01:46.230Z,101702.38
2022-10-06T04:02:16.736Z,101703.41
2022-10-06T04:02:47.114Z,101706.59
2022-10-06T04:03:17.544Z,101704.58
2022-10-06T04:03:47.986Z,101704.58
2022-10-06T04:04:18.426Z,101701.54
2022-10-06T04:04:48.850Z,101702.56
2022-10-06T04:05:19.297Z,101705.91
2022-10-06T04:05:49.728Z,101713.66
2022-10-06T04:06:20.171Z,101704.25
2022-10-06T04:06:50.588Z,101703.91
2022-10-06T04:07:21.010Z,101706.60
2022-10-06T04:07:51.446Z,101707.09
2022-10-06T04:08:21.876Z,101710.11
2022-10-06T04:08:52.319Z,101710.45
2022-10-06T04:09:22.742Z,101709.61
2022-10-06T04:09:53.175Z,101711.64
2022-10-06T04:10:23.613Z,101710.13
2022-10-06T04:10:54.056Z,101716.84
2022-10-06T04:11:24.462Z,101718.03
2022-10-06T04:11:54.946Z,101718.70
2022-10-06T04:12:25.366Z,101724.07
2022-10-06T04:12:55.869Z,101725.27
2022-10-06T04:13:26.271Z,101723.08
2022-10-06T04:13:56.696Z,101718.35
2022-10-06T04:14:27.120Z,101724.41
2022-10-06T04:15:00.108Z,101734.31
2022-10-06T04:15:30.718Z,101729.80
2022-10-06T04:16:01.182Z,101736.16
2022-10-06T04:16:31.683Z,101733.80
2022-10-06T04:17:02.085Z,101738.34
2022-10-06T04:17:32.501Z,101736.83
2022-10-06T04:18:02.935Z,101744.58
2022-10-06T04:18:33.382Z,101750.45
2022-10-06T04:19:03.799Z,101748.62
2022-10-06T04:19:34.223Z,101756.02
2022-10-06T04:20:04.648Z,101757.36
2022-10-06T04:20:35.093Z,101758.37
2022-10-06T04:21:05.519Z,101763.42
2022-10-06T04:21:35.986Z,101766.79
2022-10-06T04:22:06.408Z,101763.26
2022-10-06T04:22:36.856Z,101760.40
2022-10-06T04:23:07.287Z,101758.89
2022-10-06T04:23:37.712Z,101761.24
2022-10-06T04:24:08.130Z,101761.41
2022-10-06T04:24:38.554Z,101764.27
2022-10-06T04:25:08.985Z,101758.72
2022-10-06T04:25:39.450Z,101753.34
2022-10-06T04:26:09.895Z,101756.03
2022-10-06T04:26:40.295Z,101756.03
2022-10-06T04:27:10.729Z,101758.20
2022-10-06T04:27:41.141Z,101753.83
2022-10-06T04:28:11.637Z,101754.16
2022-10-06T04:28:42.151Z,101755.49
2022-10-06T04:29:12.555Z,101750.11
2022-10-06T04:29:42.976Z,101744.23
2022-10-06T04:30:13.396Z,101735.50
2022-10-06T04:30:43.839Z,101743.89
2022-10-06T04:31:14.314Z,101744.91
2022-10-06T04:31:44.743Z,101755.14
2022-10-06T04:32:15.177Z,101742.56
2022-10-06T04:32:45.572Z,101744.06
2022-10-06T04:33:15.995Z,101748.09
2022-10-06T04:33:46.415Z,101744.21
2022-10-06T04:34:16.842Z,101744.08
2022-10-06T04:34:47.272Z,101741.37
2022-10-06T04:35:17.694Z,101749.45
2022-10-06T04:35:48.123Z,101752.98
2022-10-06T04:36:18.549Z,101752.15
2022-10-06T04:36:48.996Z,101755.51
2022-10-06T04:37:19.397Z,101760.55
2022-10-06T04:37:49.821Z,101755.38
2022-10-06T04:38:20.258Z,101757.71
2022-10-06T04:38:50.674Z,101761.58
2022-10-06T04:39:21.126Z,101768.97
2022-10-06T04:39:51.547Z,101764.94
2022-10-06T04:40:21.972Z,101765.42
2022-10-06T04:40:52.422Z,101771.48
2022-10-06T04:41:22.886Z,101778.02
2022-10-06T04:41:53.292Z,101778.89
2022-10-06T04:42:23.717Z,101784.93
2022-10-06T04:42:54.139Z,101783.73
2022-10-06T04:43:24.569Z,101788.12
2022-10-06T04:43:54.991Z,101786.44
2022-10-06T04:44:25.429Z,101788.97
2022-10-06T04:44:55.864Z,101784.93
2022-10-06T04:45:26.411Z,101786.97
2022-10-06T04:45:56.963Z,101792.16
2022-10-06T04:46:44.413Z,101792.18
2022-10-06T04:47:02.717Z,101784.78
2022-10-06T04:47:33.107Z,101790.16
2022-10-06T04:48:03.529Z,101789.97
2022-10-06T04:48:33.961Z,101787.62
2022-10-06T04:49:04.401Z,101791.48
2022-10-06T04:49:34.822Z,101793.17
2022-10-06T04:50:05.241Z,101789.98
2022-10-06T04:50:35.667Z,101789.13
2022-10-06T04:51:06.108Z,101791.17
2022-10-06T04:51:36.534Z,101792.98
2022-10-06T04:52:06.958Z,101794.84
2022-10-06T04:52:37.393Z,101793.36
2022-10-06T04:53:07.817Z,101794.85
2022-10-06T04:53:38.237Z,101797.36
2022-10-06T04:54:08.658Z,101798.72
2022-10-06T04:54:39.076Z,101797.86
2022-10-06T04:55:09.513Z,101794.87
2022-10-06T04:55:39.942Z,101803.58
2022-10-06T04:56:10.396Z,101800.23
2022-10-06T04:56:40.822Z,101796.72
2022-10-06T04:57:11.236Z,101800.40
2022-10-06T04:57:41.658Z,101805.61
2022-10-06T04:58:12.102Z,101803.78
2022-10-06T04:58:42.523Z,101808.12
2022-10-06T04:59:12.940Z,101814.00
2022-10-06T04:59:43.366Z,101808.62
2022-10-06T05:00:15.042Z,101802.92
2022-10-06T05:00:45.752Z,101807.95
2022-10-06T05:01:16.291Z,101806.62
2022-10-06T05:01:46.750Z,101813.02
2022-10-06T05:02:17.275Z,101814.70
2022-10-06T05:02:47.665Z,101814.67
2022-10-06T05:03:18.088Z,101814.17
2022-10-06T05:03:48.520Z,101813.02
2022-10-06T05:04:18.942Z,101815.02
2022-10-06T05:04:49.363Z,101816.19
2022-10-06T05:05:19.787Z,101819.41
2022-10-06T05:05:50.213Z,101821.44
2022-10-06T05:06:20.655Z,101818.91
2022-10-06T05:06:51.080Z,101817.23
2022-10-06T05:07:21.498Z,101823.95
2022-10-06T05:07:51.932Z,101829.13
2022-10-06T05:08:22.352Z,101829.95
2022-10-06T05:08:52.775Z,101829.80
2022-10-06T05:09:23.202Z,101822.27
2022-10-06T05:09:53.623Z,101826.46
2022-10-06T05:10:24.043Z,101830.52
2022-10-06T05:10:54.488Z,101833.69
2022-10-06T05:11:26.009Z,101832.34
2022-10-06T05:11:56.579Z,101834.53
2022-10-06T05:12:26.984Z,101834.19
2022-10-06T05:12:57.426Z,101835.72
2022-10-06T05:13:27.830Z,101837.91
2022-10-06T05:13:58.276Z,101837.25
2022-10-06T05:14:28.674Z,101836.23
2022-10-06T05:14:59.101Z,101847.34
2022-10-06T05:15:29.530Z,101843.64
2022-10-06T05:16:00.007Z,101849.51
2022-10-06T05:16:30.500Z,101851.35
2022-10-06T05:17:01.046Z,101846.65
2022-10-06T05:17:31.421Z,101852.03
2022-10-06T05:18:01.854Z,101855.05
2022-10-06T05:18:32.528Z,101856.57
2022-10-06T05:19:02.899Z,101847.81
2022-10-06T05:19:33.335Z,101856.23
2022-10-06T05:20:03.755Z,101855.55
2022-10-06T05:20:34.178Z,101862.77
2022-10-06T05:21:06.717Z,101861.60
2022-10-06T05:21:37.272Z,101868.48
2022-10-06T05:22:07.694Z,101868.67
2022-10-06T05:22:38.118Z,101870.51
2022-10-06T05:23:08.537Z,101865.16
2022-10-06T05:23:38.958Z,101869.69
2022-10-06T05:24:09.384Z,101874.54
2022-10-06T05:24:39.819Z,101875.73
2022-10-06T05:25:10.237Z,101870.34
2022-10-06T05:25:40.659Z,101874.38
2022-10-06T05:26:11.089Z,101879.41
2022-10-06T05:26:41.527Z,101876.91
2022-10-06T05:27:11.968Z,101880.78
2022-10-06T05:27:42.370Z,101878.41
2022-10-06T05:28:12.863Z,101881.42
2022-10-06T05:28:43.329Z,101884.94
2022-10-06T05:29:13.742Z,101885.46
2022-10-06T05:29:44.168Z,101886.33
2022-10-06T05:30:14.589Z,101886.83
2022-10-06T05:30:45.011Z,101891.19
2022-10-06T05:31:15.468Z,101893.21
2022-10-06T05:31:45.915Z,101886.83
2022-10-06T05:32:16.312Z,101891.70
2022-10-06T05:32:46.745Z,101890.52
2022-10-06T05:33:17.174Z,101895.56
2022-10-06T05:33:47.595Z,101895.06
2022-10-06T05:34:18.017Z,101898.58
2022-10-06T05:34:48.448Z,101893.39
2022-10-06T05:35:18.865Z,101901.09
2022-10-06T05:35:49.288Z,101898.76
2022-10-06T05:36:19.730Z,101906.50
2022-10-06T05:36:50.170Z,101901.11
2022-10-06T05:37:20.593Z,101903.30
2022-10-06T05:37:51.012Z,101908.68
2022-10-06T05:38:21.437Z,101911.86
2022-10-06T05:38:51.857Z,101912.70
2022-10-06T05:39:22.289Z,101913.88
2022-10-06T05:39:52.733Z,101919.94
2022-10-06T05:40:23.141Z,101917.91
2022-10-06T05:40:53.560Z,101918.60
2022-10-06T05:41:23.989Z,101915.89
2022-10-06T05:41:54.429Z,101917.23
2022-10-06T05:42:28.825Z,101924.12
2022-10-06T05:43:00.096Z,101921.95
2022-10-06T05:43:30.518Z,101923.28
2022-10-06T05:44:00.946Z,101924.45
2022-10-06T05:44:31.380Z,101926.81
2022-10-06T05:45:01.807Z,101931.36
2022-10-06T05:45:32.289Z,101938.26
2022-10-06T05:46:02.734Z,101933.72
2022-10-06T05:46:33.121Z,101937.41
2022-10-06T05:47:03.570Z,101936.59
2022-10-06T05:47:33.992Z,101942.12